JST1866 YWLM-YPDN
Flight info
| Callsign | JST1866 |
|---|---|
| Flight time | N/A |
| Altitude | 34000 |
| Route | UBSON DCT NICLA DCT SORTI DCT SANAD DCT TW DCT BAZZA H530 IVRAD Q57 DODRO/N0465F360 Q57 MIGAX A464 TN Q23 DN |
| Aircraft | A320/M-SDE3FGHIRWY/LB1 |
Departure
| Time | 2026-04-19 02:20 |
|---|---|
| Airport | Newcastle Airport (YWLM) |
Arrival
| Time | N/A |
|---|---|
| Airport | Darwin International Airport / RAAF Darwin (YPDN) |
| Time | Latitude | Longitude | Altitude | Speed | Heading |
|---|---|---|---|---|---|
| 2026-04-19 01:56 | -32.80372 | 151.84033 | 29 ft | 0 kts | 253° |
| 2026-04-19 02:10 | -32.80372 | 151.84034 | 28 ft | 1 kts | 253° |
| 2026-04-19 02:10 | -32.80366 | 151.84061 | 28 ft | 4 kts | 258° |
| 2026-04-19 02:10 | -32.80362 | 151.84092 | 27 ft | 3 kts | 263° |
| 2026-04-19 02:11 | -32.80361 | 151.84100 | 27 ft | 0 kts | 263° |
| 2026-04-19 02:13 | -32.80339 | 151.84060 | 28 ft | 12 kts | 311° |
| 2026-04-19 02:13 | -32.80284 | 151.83982 | 30 ft | 12 kts | 310° |
| 2026-04-19 02:13 | -32.80223 | 151.83902 | 30 ft | 14 kts | 313° |
| 2026-04-19 02:14 | -32.80148 | 151.83830 | 31 ft | 14 kts | 338° |
| 2026-04-19 02:14 | -32.80051 | 151.83830 | 32 ft | 14 kts | 8° |
| 2026-04-19 02:14 | -32.79951 | 151.83850 | 33 ft | 15 kts | 14° |
| 2026-04-19 02:14 | -32.79852 | 151.83884 | 33 ft | 15 kts | 32° |
| 2026-04-19 02:15 | -32.79779 | 151.83977 | 33 ft | 16 kts | 29° |
| 2026-04-19 02:15 | -32.79695 | 151.83918 | 32 ft | 15 kts | 311° |
| 2026-04-19 02:15 | -32.79625 | 151.83817 | 32 ft | 17 kts | 310° |
| 2026-04-19 02:15 | -32.79543 | 151.83703 | 29 ft | 20 kts | 311° |
| 2026-04-19 02:16 | -32.79451 | 151.83574 | 30 ft | 21 kts | 310° |
| 2026-04-19 02:16 | -32.79354 | 151.83440 | 30 ft | 22 kts | 310° |
| 2026-04-19 02:16 | -32.79253 | 151.83301 | 33 ft | 22 kts | 310° |
| 2026-04-19 02:16 | -32.79153 | 151.83160 | 33 ft | 23 kts | 309° |
| 2026-04-19 02:17 | -32.79046 | 151.83011 | 34 ft | 24 kts | 309° |
| 2026-04-19 02:17 | -32.78932 | 151.82850 | 31 ft | 27 kts | 310° |
| 2026-04-19 02:17 | -32.78809 | 151.82676 | 30 ft | 25 kts | 310° |
| 2026-04-19 02:17 | -32.78791 | 151.82597 | 28 ft | 7 kts | 248° |
| 2026-04-19 02:18 | -32.78794 | 151.82592 | 28 ft | 0 kts | 237° |
| 2026-04-19 02:18 | -32.78803 | 151.82581 | 28 ft | 3 kts | 229° |
| 2026-04-19 02:19 | -32.78830 | 151.82553 | 27 ft | 7 kts | 219° |
| 2026-04-19 02:19 | -32.78881 | 151.82520 | 26 ft | 9 kts | 175° |
| 2026-04-19 02:19 | -32.78984 | 151.82639 | 28 ft | 50 kts | 131° |
| 2026-04-19 02:20 | -32.79975 | 151.83994 | 42 ft | 157 kts | 135° |
| 2026-04-19 02:20 | -32.80676 | 151.84973 | 659 ft | 150 kts | 133° |
| 2026-04-19 02:20 | -32.81365 | 151.85930 | 1213 ft | 156 kts | 133° |
| 2026-04-19 02:20 | -32.81989 | 151.87003 | 1833 ft | 160 kts | 114° |
| 2026-04-19 02:21 | -32.81973 | 151.88253 | 2589 ft | 151 kts | 56° |
| 2026-04-19 02:21 | -32.81210 | 151.89223 | 2991 ft | 180 kts | 41° |
| 2026-04-19 02:21 | -32.80205 | 151.90238 | 3601 ft | 199 kts | 41° |
| 2026-04-19 02:21 | -32.79117 | 151.91348 | 4166 ft | 220 kts | 40° |
| 2026-04-19 02:22 | -32.77892 | 151.92564 | 4856 ft | 237 kts | 40° |
| 2026-04-19 02:22 | -32.76583 | 151.93857 | 5611 ft | 251 kts | 38° |
| 2026-04-19 02:22 | -32.75129 | 151.95017 | 6603 ft | 255 kts | 22° |
| 2026-04-19 02:22 | -32.73368 | 151.95388 | 7390 ft | 266 kts | 353° |
| 2026-04-19 02:23 | -32.71489 | 151.94870 | 7869 ft | 287 kts | 341° |
| 2026-04-19 02:23 | -32.69557 | 151.94245 | 8860 ft | 291 kts | 343° |
| 2026-04-19 02:23 | -32.67558 | 151.93664 | 9713 ft | 300 kts | 344° |
| 2026-04-19 02:23 | -32.65498 | 151.93130 | 10586 ft | 309 kts | 345° |
| 2026-04-19 02:24 | -32.63337 | 151.92588 | 11124 ft | 328 kts | 344° |
| 2026-04-19 02:24 | -32.61030 | 151.91972 | 11531 ft | 352 kts | 344° |
| 2026-04-19 02:24 | -32.58562 | 151.91289 | 11868 ft | 376 kts | 343° |
| 2026-04-19 02:24 | -32.55947 | 151.90554 | 12311 ft | 394 kts | 343° |
| 2026-04-19 02:25 | -32.53254 | 151.89797 | 13063 ft | 401 kts | 343° |
| 2026-04-19 02:25 | -32.50519 | 151.89031 | 13871 ft | 407 kts | 343° |
| 2026-04-19 02:25 | -32.48649 | 151.88509 | 14421 ft | 410 kts | 343° |
| 2026-04-19 02:25 | -32.45870 | 151.87831 | 15198 ft | 417 kts | 350° |
| 2026-04-19 02:26 | -32.42943 | 151.87668 | 15989 ft | 425 kts | 0° |
| 2026-04-19 02:26 | -32.39991 | 151.88131 | 16752 ft | 432 kts | 11° |
| 2026-04-19 02:26 | -32.37041 | 151.89138 | 17495 ft | 438 kts | 16° |
| 2026-04-19 02:26 | -32.34111 | 151.90195 | 18224 ft | 443 kts | 15° |
| 2026-04-19 02:27 | -32.31146 | 151.91248 | 18934 ft | 447 kts | 15° |
| 2026-04-19 02:27 | -32.28147 | 151.92303 | 19619 ft | 452 kts | 15° |
| 2026-04-19 02:27 | -32.25153 | 151.93356 | 20263 ft | 457 kts | 15° |
| 2026-04-19 02:27 | -32.22088 | 151.94433 | 20912 ft | 462 kts | 15° |
| 2026-04-19 02:28 | -32.18993 | 151.95529 | 21547 ft | 467 kts | 15° |
| 2026-04-19 02:28 | -32.15867 | 151.96638 | 22169 ft | 472 kts | 15° |
| 2026-04-19 02:28 | -32.12704 | 151.97757 | 22789 ft | 476 kts | 14° |
| 2026-04-19 02:28 | -32.09460 | 151.98583 | 23380 ft | 479 kts | 5° |
| 2026-04-19 02:29 | -32.06134 | 151.98795 | 23957 ft | 480 kts | 355° |
| 2026-04-19 02:29 | -32.02812 | 151.98376 | 24522 ft | 480 kts | 345° |
| 2026-04-19 02:29 | -31.99613 | 151.97335 | 25239 ft | 474 kts | 335° |
| 2026-04-19 02:29 | -31.96610 | 151.95799 | 25900 ft | 469 kts | 330° |
| 2026-04-19 02:30 | -31.93654 | 151.94180 | 26511 ft | 467 kts | 329° |
| 2026-04-19 02:30 | -31.90708 | 151.92577 | 27057 ft | 466 kts | 329° |
| 2026-04-19 02:30 | -31.87768 | 151.90984 | 27563 ft | 465 kts | 329° |
| 2026-04-19 02:30 | -31.84835 | 151.89389 | 28031 ft | 462 kts | 327° |
| 2026-04-19 02:31 | -31.82077 | 151.87521 | 28449 ft | 454 kts | 319° |
| 2026-04-19 02:31 | -31.79617 | 151.85262 | 28856 ft | 445 kts | 310° |
| 2026-04-19 02:31 | -31.77348 | 151.82806 | 29244 ft | 443 kts | 310° |
| 2026-04-19 02:31 | -31.75082 | 151.80357 | 29683 ft | 441 kts | 310° |
| 2026-04-19 02:32 | -31.72831 | 151.77927 | 30047 ft | 439 kts | 309° |
| 2026-04-19 02:32 | -31.70584 | 151.75500 | 30455 ft | 437 kts | 309° |
| 2026-04-19 02:32 | -31.68349 | 151.73090 | 30868 ft | 436 kts | 309° |
| 2026-04-19 02:32 | -31.66115 | 151.70683 | 31284 ft | 434 kts | 309° |
| 2026-04-19 02:33 | -31.63884 | 151.68289 | 31626 ft | 434 kts | 309° |
| 2026-04-19 02:33 | -31.61662 | 151.65909 | 32043 ft | 432 kts | 309° |
| 2026-04-19 02:33 | -31.59453 | 151.63541 | 32445 ft | 429 kts | 309° |
| 2026-04-19 02:33 | -31.57253 | 151.61179 | 32757 ft | 428 kts | 309° |
| 2026-04-19 02:34 | -31.55061 | 151.58824 | 33095 ft | 426 kts | 309° |
| 2026-04-19 02:34 | -31.52877 | 151.56478 | 33454 ft | 425 kts | 309° |
| 2026-04-19 02:34 | -31.50700 | 151.54141 | 33828 ft | 424 kts | 309° |
| 2026-04-19 02:34 | -31.48527 | 151.51812 | 34115 ft | 423 kts | 309° |
| 2026-04-19 02:35 | -31.44138 | 151.47104 | 34196 ft | 434 kts | 309° |
| 2026-04-19 02:35 | -31.39646 | 151.42204 | 34193 ft | 444 kts | 305° |
| 2026-04-19 02:36 | -31.36023 | 151.36392 | 34193 ft | 446 kts | 295° |
| 2026-04-19 02:36 | -31.32709 | 151.30243 | 34187 ft | 438 kts | 295° |
| 2026-04-19 02:37 | -31.29494 | 151.24319 | 34191 ft | 428 kts | 295° |
| 2026-04-19 02:37 | -31.26343 | 151.18483 | 34190 ft | 427 kts | 295° |
| 2026-04-19 02:38 | -31.23172 | 151.12605 | 34193 ft | 427 kts | 295° |
| 2026-04-19 02:38 | -31.19988 | 151.06746 | 34192 ft | 427 kts | 295° |
| 2026-04-19 02:39 | -31.16801 | 151.00892 | 34196 ft | 427 kts | 295° |
| 2026-04-19 02:39 | -31.13613 | 150.95037 | 34196 ft | 427 kts | 295° |
| 2026-04-19 02:40 | -31.10405 | 150.89148 | 34201 ft | 427 kts | 295° |
| 2026-04-19 02:40 | -31.07218 | 150.83309 | 34203 ft | 426 kts | 295° |
| 2026-04-19 02:41 | -31.04063 | 150.77455 | 34200 ft | 426 kts | 294° |
| 2026-04-19 02:41 | -31.00950 | 150.71587 | 34203 ft | 425 kts | 294° |
| 2026-04-19 02:42 | -30.97842 | 150.65726 | 34199 ft | 425 kts | 295° |
| 2026-04-19 02:42 | -30.94718 | 150.59878 | 34198 ft | 425 kts | 295° |
| 2026-04-19 02:43 | -30.91579 | 150.54037 | 34203 ft | 425 kts | 295° |
| 2026-04-19 02:43 | -30.88451 | 150.48204 | 34201 ft | 425 kts | 295° |
| 2026-04-19 02:44 | -30.85328 | 150.42375 | 34206 ft | 424 kts | 295° |
| 2026-04-19 02:44 | -30.82221 | 150.36596 | 34200 ft | 423 kts | 295° |
| 2026-04-19 02:45 | -30.79086 | 150.30790 | 34195 ft | 423 kts | 295° |
| 2026-04-19 02:45 | -30.75974 | 150.25034 | 34185 ft | 423 kts | 295° |
| 2026-04-19 02:46 | -30.72846 | 150.19247 | 34183 ft | 422 kts | 295° |
| 2026-04-19 02:46 | -30.69717 | 150.13471 | 34185 ft | 422 kts | 295° |
| 2026-04-19 02:47 | -30.66594 | 150.07709 | 34184 ft | 421 kts | 295° |
| 2026-04-19 02:47 | -30.63475 | 150.01955 | 34185 ft | 421 kts | 295° |
| 2026-04-19 02:48 | -30.60350 | 149.96213 | 34187 ft | 420 kts | 295° |
| 2026-04-19 02:48 | -30.57225 | 149.90488 | 34186 ft | 419 kts | 295° |
| 2026-04-19 02:49 | -30.54104 | 149.84770 | 34185 ft | 419 kts | 295° |
| 2026-04-19 02:49 | -30.50988 | 149.79059 | 34184 ft | 419 kts | 295° |
| 2026-04-19 02:50 | -30.47870 | 149.73354 | 34181 ft | 418 kts | 295° |
| 2026-04-19 02:51 | -30.43196 | 149.64809 | 34180 ft | 418 kts | 295° |
| 2026-04-19 02:51 | -30.40071 | 149.59126 | 34179 ft | 418 kts | 296° |
| 2026-04-19 02:52 | -30.36953 | 149.53453 | 34178 ft | 418 kts | 295° |
| 2026-04-19 02:52 | -30.33833 | 149.47774 | 34178 ft | 418 kts | 295° |
| 2026-04-19 02:53 | -30.30713 | 149.42103 | 34176 ft | 417 kts | 295° |
| 2026-04-19 02:53 | -30.27589 | 149.36438 | 34174 ft | 418 kts | 296° |
| 2026-04-19 02:54 | -30.24471 | 149.30818 | 34171 ft | 418 kts | 296° |
| 2026-04-19 02:54 | -30.21335 | 149.25157 | 34173 ft | 418 kts | 296° |
| 2026-04-19 02:55 | -30.18203 | 149.19495 | 34176 ft | 418 kts | 296° |
| 2026-04-19 02:55 | -30.15071 | 149.13846 | 34179 ft | 418 kts | 296° |